Melbourne International Airport
KMLB : now visible

Airfield :











YOU CAN JOIN US ON...

 
LOGIN :

Register | Disclaimer

   EN    FR    IT 

 









Legend :    VFR   Marginal VFR   IFR   Intensive IFR   Very Intensive IFR
Visi :
Ceiling :
>= 8 km
>= 3000ft
5 to 8 km
1000 to 3000 ft
1500m to 5 km
500 to 1000 ft
800 to 1500m
200 to 500 ft
< 800m
< 200 ft
Symbols :   Thunderstorms  Fog  Heavy snow  Heavy precipitations  Wind > 20 kt






- Airport Elevation : 33 ft
- IATA code : MLB


KMLB - Melbourne International

CURRENT METAR :
  • 100653Z AUTO 26012KT 5SM BR CLR 23/22 A2977 RMK AO2 SLP082 T02280217

EXPIRED METARs :
  • 100553Z AUTO 25012KT 5SM BR CLR 23/22 A2978 RMK AO2 SLP084 T02280217 10283 20228 56010
  • 100453Z AUTO 25009KT 7SM CLR 23/22 A2979 RMK AO2 SLP085 T02330217 403280217

TAF KMLB
Valid from the 10 at 06:00 until the 11 at 06:00 UTC


100520Z 1006/1106 25011KT P6SM FEW030 SCT250
FM100900 25010KT P6SM SCT008 BKN012
FM101500 32013KT P6SM FEW015 BKN025
FM101700 36013G23KT P6SM VCSH SCT030 BKN050
FM102300 36010KT P6SM SCT040 SCT100



MET'MAP, your aeronautical weather chart ! - Copyright ORBIFLY December 2007 - Disclaimer

ORBIFLY MET'MAP TEAM :

Programming & Development : Alexandra Zaïnal
Concept & original design : Baudouin d'Aumeries
Assistance for programming : Marc-Olivier Méhu
Technical & hardware support : Manuel Goepfert

Contact : metmap@orbifly.com




SOURCES & CREDITS :

   NOAA       Earth
Advisory